Time;durP1;ratioP1;P1;durP2;ratioP2;P2;SDS_P1;SDS_P2;PMS_P1;PMS_P2;Temp;Humidity;BMP_temperature;BMP_pressure;BME280_temperature;BME280_humidity;BME280_pressure;Samples;Min_cycle;Max_cycle;Signal;HPM_P1;HPM_P2
2022/04/10 00:02:13;;;;;;;15.98;11.63;;;;;;;;;;5062660;28;20036;-77
2022/04/10 00:04:38;;;;;;;16.48;11.88;;;;;;;;;;5058203;28;20056;-78
2022/04/10 00:07:04;;;;;;;17.60;12.55;;;;;;;;;;5055713;28;20024;-77
2022/04/10 00:09:29;;;;;;;16.27;12.02;;;;;;;;;;5056875;28;20083;-77
2022/04/10 00:11:55;;;;;;;17.70;12.48;;;;;;;;;;5056848;28;20029;-77
2022/04/10 00:14:20;;;;;;;17.45;13.30;;;;;;;;;;5055452;28;20065;-77
2022/04/10 00:16:46;;;;;;;16.98;12.40;;;;;;;;;;5056871;28;20040;-77
2022/04/10 00:19:11;;;;;;;15.68;12.60;;;;;;;;;;5056700;28;20108;-77
2022/04/10 00:21:37;;;;;;;18.40;12.90;;;;;;;;;;5057838;28;20417;-78
2022/04/10 00:24:02;;;;;;;18.25;13.55;;;;;;;;;;5059587;28;20107;-77
2022/04/10 00:26:28;;;;;;;19.85;12.32;;;;;;;;;;5056669;28;20064;-78
2022/04/10 00:28:54;;;;;;;16.88;12.18;;;;;;;;;;5056724;28;20082;-78
2022/04/10 00:31:19;;;;;;;17.80;12.23;;;;;;;;;;5056844;28;20517;-77
2022/04/10 00:33:44;;;;;;;17.10;12.38;;;;;;;;;;5055370;28;20024;-77
2022/04/10 00:36:10;;;;;;;16.67;11.57;;;;;;;;;;5056365;28;20056;-77
2022/04/10 00:38:36;;;;;;;19.63;13.05;;;;;;;;;;5055145;28;20397;-77
2022/04/10 00:41:01;;;;;;;17.70;12.85;;;;;;;;;;5054977;28;20040;-78
2022/04/10 00:43:32;;;;;;;17.30;12.60;;;;;;;;;;5056504;28;20051;-77
2022/04/10 00:45:58;;;;;;;;;;;;;;;;;;5056961;28;20029;-77
2022/04/10 00:48:23;;;;;;;21.27;14.02;;;;;;;;;;5056199;28;20003;-77
2022/04/10 00:53:34;;;;;;;22.10;14.40;;;;;;;;;;5056104;28;20480;-77
2022/04/10 00:55:59;;;;;;;20.90;15.10;;;;;;;;;;5055179;28;20025;-78
2022/04/10 00:58:25;;;;;;;19.48;13.73;;;;;;;;;;5037963;28;20370;-77
2022/04/10 01:00:50;;;;;;;22.92;14.93;;;;;;;;;;5055957;28;20032;-77
2022/04/10 01:03:16;;;;;;;23.83;15.43;;;;;;;;;;5056196;28;20652;-78
2022/04/10 01:05:43;;;;;;;25.48;15.77;;;;;;;;;;5056536;28;20036;-77
2022/04/10 01:08:08;;;;;;;28.42;15.77;;;;;;;;;;5038366;28;20035;-78
2022/04/10 01:10:34;;;;;;;27.38;16.67;;;;;;;;;;5055678;28;20119;-77
2022/04/10 01:13:00;;;;;;;26.25;16.30;;;;;;;;;;5038281;28;20044;-77
2022/04/10 01:15:25;;;;;;;26.60;16.90;;;;;;;;;;5054681;28;20132;-77
2022/04/10 01:17:51;;;;;;;27.50;16.65;;;;;;;;;;5055633;28;20057;-78
2022/04/10 01:20:16;;;;;;;31.77;17.60;;;;;;;;;;5037806;28;20033;-77
2022/04/10 01:22:42;;;;;;;29.95;18.20;;;;;;;;;;5038443;28;20438;-77
2022/04/10 01:25:08;;;;;;;31.38;17.88;;;;;;;;;;5041435;28;20064;-77
2022/04/10 01:27:37;;;;;;;30.13;17.92;;;;;;;;;;5055070;28;20075;-77
2022/04/10 01:30:04;;;;;;;30.95;18.42;;;;;;;;;;5054461;28;20045;-77
2022/04/10 01:32:30;;;;;;;32.25;17.33;;;;;;;;;;5054330;28;20052;-77
2022/04/10 01:34:57;;;;;;;33.13;18.35;;;;;;;;;;5055781;28;20037;-76
2022/04/10 01:37:22;;;;;;;36.20;20.17;;;;;;;;;;5037464;28;20029;-77
2022/04/10 01:39:48;;;;;;;36.67;20.30;;;;;;;;;;5053976;28;20043;-77
2022/04/10 01:42:13;;;;;;;36.63;20.58;;;;;;;;;;5054696;28;20037;-77
2022/04/10 01:44:40;;;;;;;39.10;20.73;;;;;;;;;;5058384;28;20040;-78
2022/04/10 01:47:05;;;;;;;39.08;20.55;;;;;;;;;;5055454;28;20060;-77
2022/04/10 01:49:31;;;;;;;36.30;20.45;;;;;;;;;;5054961;28;20446;-77
2022/04/10 01:51:56;;;;;;;38.33;20.92;;;;;;;;;;5054303;28;20094;-78
2022/04/10 01:54:22;;;;;;;36.85;21.35;;;;;;;;;;5055066;28;20033;-77
2022/04/10 01:56:47;;;;;;;38.15;20.35;;;;;;;;;;5037487;28;20454;-77
2022/04/10 01:59:13;;;;;;;38.65;20.42;;;;;;;;;;5055147;28;20052;-77
2022/04/10 02:01:38;;;;;;;41.33;21.13;;;;;;;;;;5055176;28;20032;-78
2022/04/10 02:04:04;;;;;;;37.97;20.52;;;;;;;;;;5056741;28;20029;-77
2022/04/10 02:06:29;;;;;;;37.33;20.83;;;;;;;;;;5037907;28;20029;-78
2022/04/10 02:08:55;;;;;;;36.58;21.90;;;;;;;;;;5054590;28;20024;-78
2022/04/10 02:11:21;;;;;;;37.72;20.92;;;;;;;;;;5054717;28;20362;-77
2022/04/10 02:13:47;;;;;;;38.65;21.08;;;;;;;;;;5043277;28;20047;-78
2022/04/10 02:16:15;;;;;;;39.60;21.30;;;;;;;;;;5062199;28;20033;-77
2022/04/10 02:18:41;;;;;;;34.45;19.90;;;;;;;;;;5063469;28;20025;-77
2022/04/10 02:21:06;;;;;;;37.85;20.35;;;;;;;;;;5057614;28;20040;-77
2022/04/10 02:23:31;;;;;;;39.72;20.90;;;;;;;;;;5060423;28;20434;-77
2022/04/10 02:25:57;;;;;;;39.05;20.15;;;;;;;;;;5060576;28;20080;-77
2022/04/10 02:28:23;;;;;;;35.55;19.75;;;;;;;;;;5054645;28;20442;-77
2022/04/10 02:30:48;;;;;;;37.50;21.23;;;;;;;;;;5054207;28;20098;-77
2022/04/10 02:33:14;;;;;;;34.13;19.85;;;;;;;;;;5036449;28;20098;-77
2022/04/10 02:35:43;;;;;;;32.13;18.70;;;;;;;;;;5054220;28;20036;-77
2022/04/10 02:38:08;;;;;;;33.80;19.60;;;;;;;;;;5054471;28;20032;-77
2022/04/10 02:40:34;;;;;;;35.45;19.58;;;;;;;;;;5036162;28;20094;-78
2022/04/10 02:42:59;;;;;;;33.47;19.67;;;;;;;;;;5054518;28;20466;-79
2022/04/10 02:45:25;;;;;;;33.97;19.13;;;;;;;;;;5062170;28;20029;-79
2022/04/10 02:47:51;;;;;;;33.53;18.33;;;;;;;;;;5054376;28;20191;-77
2022/04/10 02:50:16;;;;;;;33.75;18.58;;;;;;;;;;5054083;28;20044;-77
2022/04/10 02:52:42;;;;;;;34.85;18.90;;;;;;;;;;5053996;28;20021;-78
2022/04/10 02:55:08;;;;;;;35.00;18.70;;;;;;;;;;5054025;28;20133;-78
2022/04/10 02:57:34;;;;;;;33.38;17.85;;;;;;;;;;5036188;28;20025;-77
2022/04/10 03:00:00;;;;;;;32.47;18.15;;;;;;;;;;5053991;28;20091;-77
2022/04/10 03:02:25;;;;;;;32.78;18.50;;;;;;;;;;5055525;28;20036;-77
2022/04/10 03:04:51;;;;;;;30.77;18.48;;;;;;;;;;5043701;28;20450;-77
2022/04/10 03:07:16;;;;;;;34.45;17.92;;;;;;;;;;5059712;28;20033;-77
2022/04/10 03:09:42;;;;;;;34.60;17.42;;;;;;;;;;5057651;28;20413;-77
2022/04/10 03:12:08;;;;;;;28.75;16.90;;;;;;;;;;5058202;28;20127;-79
2022/04/10 03:14:34;;;;;;;27.70;16.88;;;;;;;;;;5057802;28;20021;-77
2022/04/10 03:17:00;;;;;;;31.70;16.38;;;;;;;;;;5056690;28;20021;-79
2022/04/10 03:19:26;;;;;;;33.88;17.52;;;;;;;;;;5058017;28;20082;-78
2022/04/10 03:21:51;;;;;;;29.40;17.45;;;;;;;;;;5057186;28;20354;-78
2022/04/10 03:24:17;;;;;;;27.65;16.08;;;;;;;;;;5057891;28;20025;-77
2022/04/10 03:26:42;;;;;;;28.45;15.55;;;;;;;;;;5057792;28;20450;-77
2022/04/10 03:29:09;;;;;;;29.13;14.90;;;;;;;;;;5057579;28;20036;-78
2022/04/10 03:31:35;;;;;;;23.58;13.18;;;;;;;;;;5057634;28;20032;-77
2022/04/10 03:34:00;;;;;;;17.10;9.98;;;;;;;;;;5057545;28;20119;-77
2022/04/10 03:36:41;;;;;;;14.10;8.68;;;;;;;;;;5039783;28;20083;-78
2022/04/10 03:39:06;;;;;;;10.02;6.43;;;;;;;;;;5057254;28;20033;-77
2022/04/10 03:41:32;;;;;;;9.70;5.57;;;;;;;;;;5057286;28;20040;-77
2022/04/10 03:43:57;;;;;;;10.07;4.70;;;;;;;;;;5057466;28;20067;-78
2022/04/10 03:46:23;;;;;;;20.85;5.35;;;;;;;;;;5059865;28;20030;-77
2022/04/10 03:48:48;;;;;;;10.18;6.32;;;;;;;;;;5056627;28;20029;-78
2022/04/10 03:51:14;;;;;;;8.48;4.75;;;;;;;;;;5057207;28;20043;-77
2022/04/10 03:53:40;;;;;;;9.15;4.75;;;;;;;;;;5057072;28;20430;-78
2022/04/10 03:56:05;;;;;;;8.05;4.95;;;;;;;;;;5057218;28;20025;-78
2022/04/10 03:58:31;;;;;;;7.15;4.88;;;;;;;;;;5057182;28;20024;-77
2022/04/10 04:00:57;;;;;;;6.10;3.58;;;;;;;;;;5057312;28;20044;-78
2022/04/10 04:03:22;;;;;;;5.68;3.75;;;;;;;;;;5061937;28;20119;-79
2022/04/10 04:06:03;;;;;;;6.25;3.35;;;;;;;;;;5057157;28;20029;-78
2022/04/10 04:08:28;;;;;;;2.92;2.00;;;;;;;;;;5056689;28;20040;-78
2022/04/10 04:10:54;;;;;;;2.78;1.70;;;;;;;;;;5056828;28;20378;-78
2022/04/10 04:13:19;;;;;;;13.57;2.00;;;;;;;;;;5056379;28;20033;-78
2022/04/10 04:15:45;;;;;;;2.70;1.80;;;;;;;;;;5056565;28;20028;-79
2022/04/10 04:18:10;;;;;;;1.88;1.60;;;;;;;;;;5056829;28;20029;-78
2022/04/10 04:20:35;;;;;;;1.25;0.85;;;;;;;;;;5057050;28;20426;-78
2022/04/10 04:23:01;;;;;;;0.95;0.85;;;;;;;;;;5056708;28;20033;-78
2022/04/10 04:25:27;;;;;;;0.80;0.80;;;;;;;;;;5059291;28;20033;-78
2022/04/10 04:27:52;;;;;;;0.85;0.77;;;;;;;;;;5055783;28;20025;-78
2022/04/10 04:30:36;;;;;;;1.08;0.60;;;;;;;;;;5057628;28;20485;-79
2022/04/10 04:33:02;;;;;;;0.50;0.50;;;;;;;;;;5057058;28;20458;-78
2022/04/10 04:35:27;;;;;;;0.50;0.50;;;;;;;;;;5056022;28;20128;-79
2022/04/10 04:37:53;;;;;;;0.30;0.30;;;;;;;;;;5056297;28;20112;-78
2022/04/10 04:40:18;;;;;;;0.70;0.43;;;;;;;;;;5056408;28;20112;-78
2022/04/10 04:42:44;;;;;;;0.38;0.38;;;;;;;;;;5056129;28;20454;-79
2022/04/10 04:45:09;;;;;;;0.93;0.57;;;;;;;;;;5060670;28;20445;-84
2022/04/10 04:47:36;;;;;;;0.35;0.35;;;;;;;;;;5065582;28;20107;-83
2022/04/10 04:50:01;;;;;;;1.90;1.33;;;;;;;;;;5061806;28;20092;-84
2022/04/10 04:52:27;;;;;;;2.25;1.67;;;;;;;;;;5078108;28;20009;-85
2022/04/10 04:54:52;;;;;;;1.77;1.30;;;;;;;;;;5060448;28;20025;-85
2022/04/10 04:57:18;;;;;;;4.05;2.53;;;;;;;;;;5061120;28;20033;-86
2022/04/10 04:59:43;;;;;;;1.30;0.77;;;;;;;;;;5061684;28;20039;-84
2022/04/10 05:02:09;;;;;;;0.63;0.50;;;;;;;;;;5060067;28;20029;-84
2022/04/10 05:04:35;;;;;;;3.13;1.85;;;;;;;;;;5039975;28;20473;-86
2022/04/10 05:07:00;;;;;;;1.02;0.90;;;;;;;;;;5066317;28;20057;-85
2022/04/10 05:09:27;;;;;;;1.13;0.70;;;;;;;;;;5060199;28;20025;-79
2022/04/10 05:11:52;;;;;;;1.85;0.32;;;;;;;;;;5055678;28;20025;-79
2022/04/10 05:14:18;;;;;;;0.32;0.20;;;;;;;;;;5055973;28;20438;-77
2022/04/10 05:16:43;;;;;;;3.50;1.00;;;;;;;;;;5055854;28;20112;-77
2022/04/10 05:19:09;;;;;;;6.10;2.25;;;;;;;;;;5059531;28;20047;-85
2022/04/10 05:21:34;;;;;;;4.53;2.40;;;;;;;;;;5063750;28;20461;-85
2022/04/10 05:24:00;;;;;;;2.95;1.70;;;;;;;;;;5061553;28;20052;-77
2022/04/10 05:26:25;;;;;;;2.10;1.75;;;;;;;;;;5058685;28;20028;-76
2022/04/10 05:28:51;;;;;;;6.47;2.22;;;;;;;;;;5055162;28;20075;-78
2022/04/10 05:31:16;;;;;;;2.33;1.23;;;;;;;;;;5039265;28;20095;-77
2022/04/10 05:33:42;;;;;;;1.23;1.10;;;;;;;;;;5055625;28;20035;-78
2022/04/10 05:36:07;;;;;;;1.63;1.30;;;;;;;;;;5055855;28;20052;-77
2022/04/10 05:38:33;;;;;;;1.48;1.10;;;;;;;;;;5055199;28;20087;-78
2022/04/10 05:40:59;;;;;;;1.50;1.20;;;;;;;;;;5055609;28;20032;-76
2022/04/10 05:43:25;;;;;;;1.63;1.20;;;;;;;;;;5055494;28;20079;-77
2022/04/10 05:45:52;;;;;;;3.05;1.65;;;;;;;;;;5038771;28;20029;-76
2022/04/10 05:48:17;;;;;;;3.08;1.88;;;;;;;;;;5044232;28;20021;-77
2022/04/10 05:50:43;;;;;;;2.33;1.55;;;;;;;;;;5054840;28;20508;-77
2022/04/10 05:53:09;;;;;;;2.42;1.40;;;;;;;;;;5055034;28;20576;-78
2022/04/10 05:55:34;;;;;;;4.95;1.48;;;;;;;;;;5055112;28;20108;-78
2022/04/10 05:58:01;;;;;;;2.75;1.70;;;;;;;;;;5055013;28;20345;-77
2022/04/10 06:00:26;;;;;;;3.38;2.05;;;;;;;;;;5054758;28;20025;-81
2022/04/10 06:02:52;;;;;;;1.48;1.15;;;;;;;;;;5036847;28;20033;-79
2022/04/10 06:05:18;;;;;;;4.30;1.45;;;;;;;;;;5037098;28;20087;-78
2022/04/10 06:07:43;;;;;;;1.63;1.10;;;;;;;;;;5042532;28;20013;-79
2022/04/10 06:10:09;;;;;;;2.05;1.33;;;;;;;;;;5054714;28;20055;-79
2022/04/10 06:12:34;;;;;;;2.63;1.30;;;;;;;;;;5054475;28;20025;-78
2022/04/10 06:15:01;;;;;;;1.13;0.88;;;;;;;;;;5053356;28;20021;-79
2022/04/10 06:17:27;;;;;;;0.85;0.50;;;;;;;;;;5052693;28;20466;-78
2022/04/10 06:19:53;;;;;;;2.53;1.70;;;;;;;;;;5053428;28;20021;-78
2022/04/10 06:22:19;;;;;;;1.95;1.13;;;;;;;;;;5052926;28;20020;-77
2022/04/10 06:24:45;;;;;;;1.48;1.10;;;;;;;;;;5035024;28;20090;-78
2022/04/10 06:27:10;;;;;;;1.20;0.90;;;;;;;;;;5057706;28;20104;-79
2022/04/10 06:29:55;;;;;;;2.97;1.88;;;;;;;;;;5039118;28;20026;-86
2022/04/10 06:32:21;;;;;;;2.53;1.35;;;;;;;;;;5055908;28;20021;-82
2022/04/10 06:34:46;;;;;;;6.90;1.75;;;;;;;;;;5055450;28;20039;-86
2022/04/10 06:37:12;;;;;;;1.33;1.20;;;;;;;;;;5019970;28;20025;-77
2022/04/10 06:39:38;;;;;;;1.05;0.85;;;;;;;;;;5052882;28;20355;-80
2022/04/10 06:42:07;;;;;;;0.63;0.63;;;;;;;;;;5036282;28;20040;-79
2022/04/10 06:44:33;;;;;;;1.13;0.75;;;;;;;;;;5036555;28;20033;-79
2022/04/10 06:46:59;;;;;;;1.00;0.90;;;;;;;;;;5053824;28;20025;-78
2022/04/10 06:49:24;;;;;;;2.28;1.30;;;;;;;;;;5053995;28;20059;-79
2022/04/10 06:51:50;;;;;;;1.25;0.98;;;;;;;;;;5054246;28;20389;-78
2022/04/10 06:54:15;;;;;;;7.35;2.88;;;;;;;;;;5055836;28;20434;-84
2022/04/10 06:56:41;;;;;;;4.07;2.60;;;;;;;;;;5037681;28;20420;-82
2022/04/10 06:59:07;;;;;;;5.65;1.73;;;;;;;;;;5037167;28;20069;-78
2022/04/10 07:01:33;;;;;;;2.65;1.30;;;;;;;;;;5053785;28;20465;-80
2022/04/10 07:04:00;;;;;;;2.03;1.20;;;;;;;;;;5054184;28;20029;-83
2022/04/10 07:06:26;;;;;;;2.33;0.95;;;;;;;;;;5053911;28;20029;-83
2022/04/10 07:08:52;;;;;;;2.10;1.00;;;;;;;;;;5060216;28;20128;-85
2022/04/10 07:14:02;;;;;;;2.10;1.40;;;;;;;;;;5040333;28;20060;-83
2022/04/10 07:16:27;;;;;;;1.30;0.90;;;;;;;;;;5055049;28;20040;-84
2022/04/10 07:18:52;;;;;;;2.15;1.00;;;;;;;;;;5037322;28;20426;-84
2022/04/10 07:24:11;;;;;;;1.15;0.70;;;;;;;;;;5040348;28;20174;-83
2022/04/10 07:26:37;;;;;;;1.80;1.45;;;;;;;;;;5054876;28;20053;-82
2022/04/10 07:29:03;;;;;;;1.23;1.13;;;;;;;;;;5062154;28;20039;-83
2022/04/10 07:31:28;;;;;;;2.83;0.90;;;;;;;;;;5048520;28;20037;-82
2022/04/10 07:33:53;;;;;;;1.60;1.20;;;;;;;;;;5061470;28;20478;-83
2022/04/10 07:36:20;;;;;;;1.50;1.05;;;;;;;;;;5062898;28;20094;-83
2022/04/10 07:38:45;;;;;;;2.22;1.48;;;;;;;;;;5064647;28;20765;-84
2022/04/10 07:41:11;;;;;;;2.00;1.50;;;;;;;;;;5044160;28;20103;-84
2022/04/10 07:43:36;;;;;;;1.05;0.93;;;;;;;;;;5060111;28;20035;-82
2022/04/10 07:48:45;;;;;;;2.58;1.40;;;;;;;;;;5054852;28;20107;-83
2022/04/10 07:51:11;;;;;;;1.45;1.10;;;;;;;;;;5058298;28;20060;-82
2022/04/10 07:53:36;;;;;;;1.20;1.08;;;;;;;;;;5057958;28;20082;-84
2022/04/10 07:56:02;;;;;;;1.52;0.82;;;;;;;;;;5040677;28;20025;-84
2022/04/10 07:58:28;;;;;;;0.73;0.73;;;;;;;;;;5058372;28;20090;-83
2022/04/10 08:00:53;;;;;;;1.63;1.30;;;;;;;;;;5059595;28;20033;-83
2022/04/10 08:03:19;;;;;;;2.03;1.15;;;;;;;;;;5041269;28;20369;-83
2022/04/10 08:05:45;;;;;;;4.53;2.88;;;;;;;;;;5043201;28;20473;-82
2022/04/10 08:08:10;;;;;;;2.88;1.42;;;;;;;;;;5039928;28;20060;-82
2022/04/10 08:10:39;;;;;;;4.30;1.58;;;;;;;;;;5063701;28;20162;-82
2022/04/10 08:13:05;;;;;;;1.83;1.10;;;;;;;;;;5058701;28;20461;-83
2022/04/10 08:15:30;;;;;;;2.20;1.55;;;;;;;;;;5057708;28;20021;-82
2022/04/10 08:17:56;;;;;;;2.83;1.42;;;;;;;;;;5040594;28;20031;-82
2022/04/10 08:20:22;;;;;;;3.17;2.00;;;;;;;;;;5039914;28;20025;-85
2022/04/10 08:22:49;;;;;;;4.70;1.95;;;;;;;;;;5039530;28;20025;-82
2022/04/10 08:25:16;;;;;;;2.95;1.48;;;;;;;;;;5057318;28;20374;-84
2022/04/10 08:27:41;;;;;;;1.88;1.17;;;;;;;;;;5039356;28;20139;-82
2022/04/10 08:30:10;;;;;;;2.00;1.40;;;;;;;;;;5057691;28;20119;-83
2022/04/10 08:32:36;;;;;;;1.42;1.20;;;;;;;;;;5040418;28;20025;-78
2022/04/10 08:35:02;;;;;;;1.13;0.98;;;;;;;;;;5056637;28;20025;-80
2022/04/10 08:37:27;;;;;;;0.88;0.82;;;;;;;;;;5056368;28;20032;-80
2022/04/10 08:39:53;;;;;;;2.75;1.60;;;;;;;;;;5056684;28;20051;-79
2022/04/10 08:42:20;;;;;;;1.80;1.08;;;;;;;;;;5055956;28;20049;-79
2022/04/10 08:44:45;;;;;;;2.13;1.67;;;;;;;;;;5056545;28;20111;-79
2022/04/10 08:47:11;;;;;;;2.38;1.75;;;;;;;;;;5038442;28;20100;-79
2022/04/10 08:49:37;;;;;;;3.25;1.75;;;;;;;;;;5042100;28;20009;-79
2022/04/10 08:52:03;;;;;;;2.35;1.98;;;;;;;;;;5038240;28;20025;-79
2022/04/10 08:54:28;;;;;;;3.08;2.03;;;;;;;;;;5056432;28;20052;-79
2022/04/10 08:56:55;;;;;;;2.47;1.65;;;;;;;;;;5056068;28;20397;-79
2022/04/10 08:59:20;;;;;;;1.60;1.42;;;;;;;;;;5056015;28;20063;-79
2022/04/10 09:01:53;;;;;;;3.83;1.65;;;;;;;;;;5054568;28;20025;-79
2022/04/10 09:04:20;;;;;;;2.17;1.42;;;;;;;;;;5022157;28;20450;-78
2022/04/10 09:07:05;;;;;;;3.72;2.28;;;;;;;;;;5038530;28;20368;-78
2022/04/10 09:09:31;;;;;;;3.83;2.78;;;;;;;;;;5055831;28;20124;-77
2022/04/10 09:11:57;;;;;;;2.30;1.50;;;;;;;;;;5057500;28;20021;-79
2022/04/10 09:14:26;;;;;;;4.65;2.72;;;;;;;;;;5054603;28;20021;-80
2022/04/10 09:17:14;;;;;;;2.88;2.08;;;;;;;;;;5055654;28;20370;-79
2022/04/10 09:19:42;;;;;;;2.45;1.75;;;;;;;;;;5037905;28;20031;-79
2022/04/10 09:22:24;;;;;;;2.53;1.80;;;;;;;;;;5055650;28;20021;-79
2022/04/10 09:25:15;;;;;;;3.75;2.42;;;;;;;;;;5038244;28;20445;-78
2022/04/10 09:27:42;;;;;;;3.20;2.08;;;;;;;;;;5055566;28;20435;-77
2022/04/10 09:30:09;;;;;;;3.35;2.28;;;;;;;;;;5038261;28;20032;-78
2022/04/10 09:32:51;;;;;;;3.40;2.10;;;;;;;;;;5057329;28;20069;-79
2022/04/10 09:35:18;;;;;;;7.55;2.15;;;;;;;;;;5037682;28;20017;-79
2022/04/10 09:37:56;;;;;;;1.98;1.73;;;;;;;;;;5037800;28;20027;-79
2022/04/10 09:40:29;;;;;;;3.83;2.55;;;;;;;;;;5053887;28;20028;-78
2022/04/10 09:43:03;;;;;;;4.88;1.70;;;;;;;;;;5055036;28;20136;-79
2022/04/10 09:45:33;;;;;;;2.53;1.77;;;;;;;;;;5038203;28;20048;-80
2022/04/10 09:48:16;;;;;;;2.80;2.22;;;;;;;;;;5055000;28;20078;-78
2022/04/10 09:50:41;;;;;;;6.43;2.58;;;;;;;;;;5022874;28;20086;-78
2022/04/10 09:53:08;;;;;;;4.07;2.20;;;;;;;;;;5059671;28;20390;-79
2022/04/10 09:55:38;;;;;;;3.35;2.30;;;;;;;;;;5054723;28;20059;-79
2022/04/10 09:58:09;;;;;;;4.05;1.88;;;;;;;;;;5037097;28;20025;-79
2022/04/10 10:00:43;;;;;;;2.53;1.80;;;;;;;;;;5055353;28;20469;-79
2022/04/10 10:03:09;;;;;;;5.10;2.70;;;;;;;;;;5037450;28;20033;-79
2022/04/10 10:05:35;;;;;;;2.78;2.13;;;;;;;;;;5054795;28;20120;-78
2022/04/10 10:08:01;;;;;;;4.18;2.60;;;;;;;;;;5036974;28;20036;-79
2022/04/10 10:10:30;;;;;;;3.17;2.40;;;;;;;;;;5054852;28;20032;-79
2022/04/10 10:12:56;;;;;;;4.05;2.30;;;;;;;;;;5038890;28;20029;-79
2022/04/10 10:15:22;;;;;;;3.03;2.10;;;;;;;;;;5036818;28;20412;-78
2022/04/10 10:17:47;;;;;;;4.97;2.75;;;;;;;;;;5054643;28;20032;-80
2022/04/10 10:20:13;;;;;;;3.38;2.50;;;;;;;;;;5020299;28;20040;-79
2022/04/10 10:22:39;;;;;;;2.85;2.00;;;;;;;;;;5036748;28;20373;-79
2022/04/10 10:25:24;;;;;;;1.70;1.27;;;;;;;;;;5054588;28;20339;-78
2022/04/10 10:27:59;;;;;;;1.55;1.40;;;;;;;;;;5037879;28;20029;-80
2022/04/10 10:30:55;;;;;;;3.63;1.25;;;;;;;;;;5052962;28;20033;-79
2022/04/10 10:33:21;;;;;;;3.42;1.90;;;;;;;;;;5061048;28;20068;-78
2022/04/10 10:35:51;;;;;;;2.95;2.40;;;;;;;;;;5036620;28;20028;-79
2022/04/10 10:38:30;;;;;;;3.13;2.00;;;;;;;;;;5036343;28;20028;-78
2022/04/10 10:41:18;;;;;;;3.08;1.77;;;;;;;;;;5054352;28;20025;-79
2022/04/10 10:43:44;;;;;;;2.47;1.45;;;;;;;;;;5054074;28;20025;-79
2022/04/10 10:46:22;;;;;;;1.35;1.13;;;;;;;;;;5036561;28;20412;-80
2022/04/10 10:48:50;;;;;;;1.50;1.15;;;;;;;;;;5054046;28;20033;-79
2022/04/10 10:51:15;;;;;;;3.13;1.13;;;;;;;;;;5036454;28;20036;-77
2022/04/10 10:53:57;;;;;;;2.55;1.10;;;;;;;;;;5057085;28;20025;-78
2022/04/10 10:56:39;;;;;;;1.30;1.20;;;;;;;;;;5053977;28;20059;-77
2022/04/10 10:59:30;;;;;;;1.73;1.25;;;;;;;;;;5052840;28;20036;-79
2022/04/10 11:02:00;;;;;;;1.08;0.90;;;;;;;;;;5054580;28;20036;-78
2022/04/10 11:04:28;;;;;;;1.50;1.20;;;;;;;;;;5053896;28;20370;-78
2022/04/10 11:06:53;;;;;;;1.25;1.10;;;;;;;;;;5054140;28;20029;-77
2022/04/10 11:09:29;;;;;;;2.15;1.25;;;;;;;;;;5053637;28;20477;-78
2022/04/10 11:11:56;;;;;;;1.92;1.60;;;;;;;;;;5054180;28;20017;-77
2022/04/10 11:14:40;;;;;;;3.47;2.08;;;;;;;;;;5054025;28;20025;-80
2022/04/10 11:17:24;;;;;;;2.08;1.77;;;;;;;;;;5053703;28;20021;-80
2022/04/10 11:19:57;;;;;;;3.88;1.38;;;;;;;;;;5036028;28;20103;-77
2022/04/10 11:22:46;;;;;;;1.85;1.40;;;;;;;;;;5036413;28;20078;-80
2022/04/10 11:25:11;;;;;;;1.83;1.15;;;;;;;;;;5039264;28;20123;-78
2022/04/10 11:27:44;;;;;;;1.63;1.33;;;;;;;;;;5056575;28;20504;-78
2022/04/10 11:30:22;;;;;;;3.15;1.77;;;;;;;;;;5057631;28;20024;-78
2022/04/10 11:32:49;;;;;;;1.50;1.38;;;;;;;;;;5057646;28;20363;-79
2022/04/10 11:35:22;;;;;;;2.13;1.58;;;;;;;;;;5043584;28;20358;-78
2022/04/10 11:37:50;;;;;;;1.90;1.50;;;;;;;;;;5057378;28;20029;-78
2022/04/10 11:40:20;;;;;;;2.60;1.35;;;;;;;;;;5057528;28;20029;-78
2022/04/10 11:42:45;;;;;;;2.38;1.98;;;;;;;;;;5039520;28;20550;-80
2022/04/10 11:45:11;;;;;;;2.42;1.92;;;;;;;;;;5039747;28;20107;-81
2022/04/10 11:47:39;;;;;;;1.92;1.38;;;;;;;;;;5039716;28;20068;-78
2022/04/10 11:50:06;;;;;;;4.07;1.83;;;;;;;;;;5057170;28;20032;-77
2022/04/10 11:52:31;;;;;;;8.77;1.88;;;;;;;;;;5039344;28;20025;-77
2022/04/10 11:54:57;;;;;;;2.85;2.17;;;;;;;;;;5059896;28;20032;-78
2022/04/10 11:57:23;;;;;;;4.38;2.22;;;;;;;;;;5022783;28;20036;-78
2022/04/10 11:59:52;;;;;;;2.70;1.88;;;;;;;;;;5039645;28;20033;-81
2022/04/10 12:02:17;;;;;;;3.30;2.17;;;;;;;;;;5039746;28;20421;-80
2022/04/10 12:04:43;;;;;;;3.10;2.00;;;;;;;;;;5039204;28;20115;-82
2022/04/10 12:07:27;;;;;;;3.78;2.15;;;;;;;;;;5056981;28;20020;-79
2022/04/10 12:09:52;;;;;;;8.77;2.70;;;;;;;;;;5057446;28;20150;-80
2022/04/10 12:12:30;;;;;;;3.10;2.65;;;;;;;;;;5064243;28;20100;-85
2022/04/10 12:14:56;;;;;;;2.53;2.22;;;;;;;;;;5031673;28;20032;-79
2022/04/10 12:17:21;;;;;;;2.42;1.88;;;;;;;;;;5040487;28;20048;-80
2022/04/10 12:19:47;;;;;;;2.85;2.17;;;;;;;;;;5056662;28;20033;-80
2022/04/10 12:22:12;;;;;;;3.22;2.28;;;;;;;;;;5056711;28;20029;-81
2022/04/10 12:24:38;;;;;;;4.05;2.67;;;;;;;;;;5056798;28;20147;-80
2022/04/10 12:27:07;;;;;;;3.92;2.75;;;;;;;;;;5055459;28;20029;-80
2022/04/10 12:29:34;;;;;;;4.13;2.55;;;;;;;;;;5039226;28;20437;-80
2022/04/10 12:31:59;;;;;;;4.10;2.63;;;;;;;;;;5038785;28;20442;-81
2022/04/10 12:34:31;;;;;;;2.92;2.50;;;;;;;;;;5038203;28;20025;-79
2022/04/10 12:37:10;;;;;;;2.92;2.08;;;;;;;;;;5060772;28;20060;-80
2022/04/10 12:39:35;;;;;;;2.55;2.10;;;;;;;;;;5056739;28;20086;-80
2022/04/10 12:42:19;;;;;;;4.50;2.50;;;;;;;;;;5056156;28;20140;-79
2022/04/10 12:44:56;;;;;;;4.78;3.03;;;;;;;;;;5056278;28;20021;-81
2022/04/10 12:47:47;;;;;;;3.63;2.47;;;;;;;;;;5038883;28;20036;-80
2022/04/10 12:50:17;;;;;;;2.65;1.85;;;;;;;;;;5055950;28;20389;-79
2022/04/10 12:52:44;;;;;;;4.05;2.40;;;;;;;;;;5056173;28;20029;-78
2022/04/10 12:55:23;;;;;;;3.45;2.50;;;;;;;;;;5041058;28;20138;-79
2022/04/10 12:57:51;;;;;;;4.32;2.08;;;;;;;;;;5058289;28;20033;-81
2022/04/10 13:00:33;;;;;;;2.92;2.30;;;;;;;;;;5038398;28;20108;-80
2022/04/10 13:03:17;;;;;;;4.03;2.42;;;;;;;;;;5056131;28;20032;-80
2022/04/10 13:06:04;;;;;;;2.83;1.95;;;;;;;;;;5055985;28;20032;-80
2022/04/10 13:08:37;;;;;;;3.92;2.63;;;;;;;;;;5055826;28;20025;-79
2022/04/10 13:11:05;;;;;;;3.10;2.17;;;;;;;;;;5038684;28;20041;-81
2022/04/10 13:13:30;;;;;;;2.95;1.95;;;;;;;;;;5056164;28;20029;-80
2022/04/10 13:15:57;;;;;;;2.63;1.85;;;;;;;;;;5041661;28;20036;-79
2022/04/10 13:18:26;;;;;;;2.88;2.53;;;;;;;;;;5057504;28;20055;-80
2022/04/10 13:20:51;;;;;;;4.03;3.20;;;;;;;;;;5055916;28;20037;-80
2022/04/10 13:23:17;;;;;;;2.80;2.25;;;;;;;;;;5055667;28;20474;-80
2022/04/10 13:25:49;;;;;;;5.32;2.75;;;;;;;;;;5055570;28;20028;-80
2022/04/10 13:28:15;;;;;;;3.42;2.75;;;;;;;;;;5055782;28;20036;-80
2022/04/10 13:30:40;;;;;;;3.33;2.50;;;;;;;;;;5055342;28;20473;-80
2022/04/10 13:33:06;;;;;;;3.05;2.15;;;;;;;;;;5055280;28;20237;-79
2022/04/10 13:35:31;;;;;;;4.57;2.63;;;;;;;;;;5038368;28;20108;-78
2022/04/10 13:37:57;;;;;;;3.47;2.38;;;;;;;;;;5058560;28;20091;-80
2022/04/10 13:40:22;;;;;;;5.53;2.35;;;;;;;;;;5055259;28;20131;-80
2022/04/10 13:42:49;;;;;;;4.05;2.80;;;;;;;;;;5055529;28;20080;-79
2022/04/10 13:45:14;;;;;;;8.02;2.75;;;;;;;;;;5055255;28;20024;-80
2022/04/10 13:47:40;;;;;;;2.67;2.22;;;;;;;;;;5036215;28;20446;-79
2022/04/10 13:50:06;;;;;;;4.05;1.95;;;;;;;;;;5054961;28;20032;-80
2022/04/10 13:52:32;;;;;;;2.95;2.22;;;;;;;;;;5037186;28;20029;-80
2022/04/10 13:54:58;;;;;;;3.50;1.90;;;;;;;;;;5037282;28;20021;-80
2022/04/10 13:57:23;;;;;;;4.43;2.50;;;;;;;;;;5057787;28;20077;-79
2022/04/10 13:59:49;;;;;;;5.32;2.22;;;;;;;;;;5053829;28;20033;-81
2022/04/10 14:02:14;;;;;;;3.78;2.47;;;;;;;;;;5054668;28;20024;-80
2022/04/10 14:04:40;;;;;;;3.50;2.40;;;;;;;;;;5053512;28;20021;-81
2022/04/10 14:07:05;;;;;;;3.35;2.75;;;;;;;;;;5036988;28;20028;-80
2022/04/10 14:09:31;;;;;;;3.97;2.67;;;;;;;;;;5054633;28;20036;-79
2022/04/10 14:11:56;;;;;;;4.28;2.95;;;;;;;;;;5054865;28;20405;-80
2022/04/10 14:14:22;;;;;;;6.38;3.67;;;;;;;;;;5054898;28;20091;-80
2022/04/10 14:16:47;;;;;;;6.07;3.80;;;;;;;;;;5037893;28;20347;-80
2022/04/10 14:19:13;;;;;;;4.95;3.53;;;;;;;;;;5055554;28;20111;-80
2022/04/10 14:21:39;;;;;;;11.60;5.75;;;;;;;;;;5054564;28;20033;-80
2022/04/10 14:24:05;;;;;;;4.18;2.67;;;;;;;;;;5054490;28;20025;-80
2022/04/10 14:26:30;;;;;;;2.67;2.10;;;;;;;;;;5054783;28;20432;-80
2022/04/10 14:28:56;;;;;;;4.55;2.80;;;;;;;;;;5054444;28;20086;-80
2022/04/10 14:31:22;;;;;;;6.90;2.22;;;;;;;;;;5036220;28;20110;-80
2022/04/10 14:33:47;;;;;;;3.33;2.00;;;;;;;;;;5054488;28;20024;-80
2022/04/10 14:36:13;;;;;;;2.33;2.13;;;;;;;;;;5054444;28;20020;-80
2022/04/10 14:38:38;;;;;;;2.95;2.10;;;;;;;;;;5058404;28;20025;-80
2022/04/10 14:41:05;;;;;;;4.95;2.25;;;;;;;;;;5036456;28;20082;-80
2022/04/10 14:43:32;;;;;;;4.25;2.60;;;;;;;;;;5036599;28;20024;-81
2022/04/10 14:45:58;;;;;;;3.80;2.55;;;;;;;;;;5036275;28;20335;-80
2022/04/10 14:48:23;;;;;;;4.20;1.75;;;;;;;;;;5054361;28;20032;-80
2022/04/10 14:50:51;;;;;;;3.47;2.20;;;;;;;;;;5054108;28;20036;-80